Time;durP1;ratioP1;P1;durP2;ratioP2;P2;SDS_P1;SDS_P2;PMS_P1;PMS_P2;Temp;Humidity;BMP_temperature;BMP_pressure;BME280_temperature;BME280_humidity;BME280_pressure;Samples;Min_cycle;Max_cycle;Signal;HPM_P1;HPM_P2
2022/06/25 00:02:03;;;;;;;2.20;1.37;;;16.60;36.90;;;;;;5072882;28;20177;-68
2022/06/25 00:07:12;;;;;;;2.00;1.40;;;16.40;38.10;;;;;;5073103;28;20503;-68
2022/06/25 00:09:38;;;;;;;2.20;1.07;;;16.40;38.80;;;;;;5072576;28;20547;-69
2022/06/25 00:14:49;;;;;;;2.53;1.50;;;16.40;38.70;;;;;;5073024;28;20212;-68
2022/06/25 00:17:14;;;;;;;2.00;1.40;;;16.40;38.30;;;;;;5072932;28;20404;-69
2022/06/25 00:19:40;;;;;;;3.47;1.63;;;16.40;38.20;;;;;;5072638;28;20427;-70
2022/06/25 00:22:05;;;;;;;5.47;1.80;;;16.40;38.00;;;;;;5072705;28;20181;-68
2022/06/25 00:24:31;;;;;;;1.47;1.00;;;16.30;38.70;;;;;;5072790;28;20212;-68
2022/06/25 00:26:56;;;;;;;1.97;1.20;;;16.30;38.30;;;;;;5072586;28;20721;-68
2022/06/25 00:29:22;;;;;;;2.53;1.77;;;16.20;38.10;;;;;;5072153;28;20566;-70
2022/06/25 00:31:48;;;;;;;2.10;1.27;;;16.10;39.50;;;;;;5072530;28;20231;-67
2022/06/25 00:34:13;;;;;;;3.90;1.50;;;16.10;39.10;;;;;;5072462;28;20190;-68
2022/06/25 00:36:39;;;;;;;2.17;1.70;;;16.10;39.20;;;;;;5072372;28;20181;-68
2022/06/25 00:39:04;;;;;;;2.70;1.80;;;16.00;39.50;;;;;;5072100;28;20189;-69
2022/06/25 00:41:30;;;;;;;2.20;1.47;;;15.90;39.60;;;;;;5072242;28;20197;-68
2022/06/25 00:43:56;;;;;;;4.07;1.73;;;15.90;39.50;;;;;;5072344;28;20276;-69
2022/06/25 00:46:21;;;;;;;1.80;1.23;;;15.80;39.30;;;;;;5072320;28;20205;-68
2022/06/25 00:48:47;;;;;;;2.10;1.50;;;15.80;39.20;;;;;;5071955;28;20288;-69
2022/06/25 00:51:14;;;;;;;1.83;1.40;;;15.80;39.70;;;;;;5072297;28;20208;-68
2022/06/25 00:53:45;;;;;;;1.90;1.40;;;15.70;40.20;;;;;;5072369;28;20200;-68
2022/06/25 00:56:12;;;;;;;3.40;1.87;;;15.60;41.20;;;;;;5071909;28;20950;-69
2022/06/25 00:58:43;;;;;;;1.53;0.93;;;15.60;41.20;;;;;;5071893;28;20435;-68
2022/06/25 01:01:09;;;;;;;1.80;1.33;;;15.60;41.80;;;;;;5072154;28;20458;-68
2022/06/25 01:03:36;;;;;;;1.90;1.43;;;15.60;41.90;;;;;;5072429;28;20976;-69
2022/06/25 01:06:03;;;;;;;2.43;1.07;;;15.60;41.40;;;;;;5072075;28;20443;-68
2022/06/25 01:08:30;;;;;;;1.90;1.20;;;15.50;41.70;;;;;;5071610;28;20412;-69
2022/06/25 01:10:56;;;;;;;2.40;1.73;;;15.50;41.60;;;;;;5072101;28;20477;-69
2022/06/25 01:13:22;;;;;;;1.97;1.40;;;15.60;41.20;;;;;;5071671;28;20982;-68
2022/06/25 01:15:51;;;;;;;4.30;2.00;;;15.60;41.20;;;;;;5071873;28;20467;-68
2022/06/25 01:18:17;;;;;;;2.60;1.70;;;15.50;41.10;;;;;;5070345;28;20423;-68
2022/06/25 01:20:42;;;;;;;1.80;1.20;;;15.40;40.80;;;;;;5070773;28;20499;-69
2022/06/25 01:23:09;;;;;;;2.27;1.30;;;15.30;40.90;;;;;;5071728;28;20181;-68
2022/06/25 01:25:35;;;;;;;2.63;1.47;;;15.20;40.80;;;;;;5071796;28;20299;-68
2022/06/25 01:28:02;;;;;;;2.97;1.27;;;15.20;40.80;;;;;;5071464;28;20423;-68
2022/06/25 01:30:28;;;;;;;2.83;1.60;;;15.20;40.80;;;;;;5071604;28;20471;-70
2022/06/25 01:32:53;;;;;;;2.37;1.70;;;15.20;40.80;;;;;;5071916;28;20446;-69
2022/06/25 01:35:19;;;;;;;3.17;1.83;;;15.10;41.60;;;;;;5070317;28;20198;-68
2022/06/25 01:37:44;;;;;;;2.10;1.30;;;15.10;42.10;;;;;;5071622;28;20189;-68
2022/06/25 01:40:10;;;;;;;5.03;1.60;;;15.10;42.00;;;;;;5071405;28;20267;-69
2022/06/25 01:45:20;;;;;;;1.50;1.10;;;15.10;41.30;;;;;;5071933;28;20610;-69
2022/06/25 01:47:46;;;;;;;2.43;1.67;;;15.10;41.30;;;;;;5072153;28;20423;-70
2022/06/25 01:50:12;;;;;;;2.40;1.47;;;15.00;41.30;;;;;;5071058;28;20245;-68
2022/06/25 01:52:38;;;;;;;1.60;1.17;;;14.90;41.80;;;;;;5071635;28;20245;-68
2022/06/25 01:55:04;;;;;;;3.13;1.90;;;14.80;42.00;;;;;;5071463;28;20212;-68
2022/06/25 01:57:30;;;;;;;2.50;1.60;;;14.80;42.50;;;;;;5071436;28;20638;-68
2022/06/25 01:59:55;;;;;;;2.60;1.37;;;14.90;43.00;;;;;;5071280;28;20782;-68
2022/06/25 02:02:21;;;;;;;2.07;1.37;;;14.90;42.40;;;;;;5071519;28;20223;-69
2022/06/25 02:04:46;;;;;;;2.80;1.47;;;14.80;42.00;;;;;;5071398;28;20200;-68
2022/06/25 02:07:12;;;;;;;3.47;1.90;;;14.80;42.70;;;;;;5071654;28;20208;-68
2022/06/25 02:09:37;;;;;;;1.60;1.30;;;14.80;42.30;;;;;;5072058;28;20204;-69
2022/06/25 02:12:07;;;;;;;1.50;1.20;;;14.80;42.00;;;;;;5072190;28;20176;-69
2022/06/25 02:14:33;;;;;;;6.60;1.70;;;14.90;42.50;;;;;;5071629;28;20201;-68
2022/06/25 02:16:58;;;;;;;2.20;1.50;;;14.80;41.40;;;;;;5071679;28;20411;-68
2022/06/25 02:19:24;;;;;;;1.73;1.13;;;14.80;41.10;;;;;;5070892;28;20212;-68
2022/06/25 02:21:49;;;;;;;2.50;1.47;;;14.90;40.90;;;;;;5071340;28;20535;-68
2022/06/25 02:24:15;;;;;;;2.17;1.27;;;14.90;40.50;;;;;;5071332;28;20173;-69
2022/06/25 02:26:42;;;;;;;1.90;1.20;;;14.80;41.20;;;;;;5073384;28;20219;-70
2022/06/25 02:29:07;;;;;;;2.63;1.60;;;14.70;42.30;;;;;;5074578;28;20474;-68
2022/06/25 02:31:33;;;;;;;2.70;1.67;;;14.70;42.60;;;;;;5074994;28;20817;-68
2022/06/25 02:33:58;;;;;;;2.10;1.60;;;14.70;41.70;;;;;;5074962;28;20227;-68
2022/06/25 02:36:24;;;;;;;1.70;1.33;;;14.80;41.80;;;;;;5075553;28;20188;-68
2022/06/25 02:38:50;;;;;;;2.20;1.83;;;14.80;41.40;;;;;;5075012;28;20176;-69
2022/06/25 02:41:15;;;;;;;2.00;1.60;;;14.80;40.80;;;;;;5075767;28;20172;-68
2022/06/25 02:43:41;;;;;;;2.27;1.33;;;14.80;41.70;;;;;;5076010;28;20171;-68
2022/06/25 02:46:07;;;;;;;1.87;1.40;;;14.80;41.30;;;;;;5074935;28;20564;-67
2022/06/25 02:48:33;;;;;;;1.90;1.20;;;14.70;40.70;;;;;;5074316;28;20180;-67
2022/06/25 02:50:59;;;;;;;2.37;1.57;;;14.60;40.30;;;;;;5074726;28;20539;-67
2022/06/25 02:53:24;;;;;;;2.80;1.63;;;14.60;41.10;;;;;;5074678;28;20443;-67
2022/06/25 03:01:18;;;;;;;1.63;1.20;;;14.60;41.30;;;;;;5074267;28;20465;-67
2022/06/25 03:03:43;;;;;;;2.27;1.40;;;14.60;41.20;;;;;;5074194;28;20782;-67
2022/06/25 03:06:09;;;;;;;3.30;2.00;;;14.60;41.00;;;;;;5072960;28;20193;-68
2022/06/25 03:08:34;;;;;;;1.70;1.40;;;14.60;41.20;;;;;;5073842;28;20260;-68
2022/06/25 03:11:00;;;;;;;1.87;1.47;;;14.60;41.20;;;;;;5074683;28;20177;-67
2022/06/25 03:13:25;;;;;;;2.40;2.10;;;14.60;40.30;;;;;;5074081;28;20427;-67
2022/06/25 03:15:51;;;;;;;2.17;1.67;;;14.60;40.60;;;;;;5074029;28;20672;-68
2022/06/25 03:18:16;;;;;;;2.53;1.67;;;14.70;41.00;;;;;;5073800;28;20175;-68
2022/06/25 03:20:42;;;;;;;2.70;2.00;;;14.70;40.40;;;;;;5072719;28;20178;-68
2022/06/25 03:23:08;;;;;;;2.30;1.90;;;14.50;40.20;;;;;;5073957;28;20185;-67
2022/06/25 03:25:33;;;;;;;3.30;2.83;;;14.50;40.60;;;;;;5073659;28;20668;-68
2022/06/25 03:27:59;;;;;;;2.43;2.00;;;14.50;41.40;;;;;;5073510;28;20178;-69
2022/06/25 03:30:25;;;;;;;4.67;2.77;;;14.50;41.40;;;;;;5072569;28;20208;-68
2022/06/25 03:32:50;;;;;;;3.60;1.77;;;14.50;42.10;;;;;;5073781;28;20199;-67
2022/06/25 03:35:16;;;;;;;3.33;2.33;;;14.40;41.90;;;;;;5073868;28;20197;-68
2022/06/25 03:37:42;;;;;;;3.20;1.93;;;14.40;41.30;;;;;;5073406;28;20618;-68
2022/06/25 03:40:08;;;;;;;2.77;1.90;;;14.40;42.20;;;;;;5073431;28;20176;-69
2022/06/25 03:42:33;;;;;;;3.00;2.50;;;14.40;41.50;;;;;;5073887;28;20584;-68
2022/06/25 03:44:59;;;;;;;2.77;2.03;;;14.50;41.70;;;;;;5073910;28;20519;-68
2022/06/25 03:47:24;;;;;;;8.40;2.20;;;14.60;41.10;;;;;;5072695;28;20178;-67
2022/06/25 03:49:50;;;;;;;2.80;2.37;;;14.60;40.30;;;;;;5073227;28;20212;-67
2022/06/25 03:52:15;;;;;;;1.93;1.33;;;14.60;40.80;;;;;;5072666;28;20228;-68
2022/06/25 03:57:07;;;;;;;3.63;2.37;;;14.60;40.70;;;;;;5092466;22;20825;-68
2022/06/25 03:59:32;;;;;;;2.17;1.73;;;14.60;40.30;;;;;;5072771;28;20176;-68
2022/06/25 04:01:58;;;;;;;1.87;1.57;;;14.60;40.30;;;;;;5073149;28;20672;-68
2022/06/25 04:04:23;;;;;;;4.27;2.60;;;14.60;40.30;;;;;;5073059;28;20308;-67
2022/06/25 04:06:49;;;;;;;2.67;2.10;;;14.60;39.50;;;;;;5073051;28;20666;-69
2022/06/25 04:09:15;;;;;;;2.00;1.20;;;14.60;40.30;;;;;;5065299;28;20205;-67
2022/06/25 04:11:40;;;;;;;1.90;1.50;;;14.50;40.20;;;;;;5067072;28;20233;-67
2022/06/25 04:14:06;;;;;;;5.90;1.97;;;14.60;40.30;;;;;;5072827;28;20165;-66
2022/06/25 04:16:35;;;;;;;2.73;1.77;;;14.50;40.20;;;;;;5072761;28;20687;-67
2022/06/25 04:19:00;;;;;;;2.13;1.60;;;14.60;40.80;;;;;;5072477;28;20415;-67
2022/06/25 04:21:27;;;;;;;2.87;1.73;;;14.60;40.30;;;;;;5072880;28;20413;-69
2022/06/25 04:23:52;;;;;;;2.33;1.30;;;14.70;40.40;;;;;;5072721;28;20190;-67
2022/06/25 04:26:18;;;;;;;3.50;1.70;;;14.60;39.10;;;;;;5072618;28;20847;-67
2022/06/25 04:31:32;;;;;;;2.03;1.50;;;14.60;40.30;;;;;;5072750;28;20207;-67
2022/06/25 04:33:58;;;;;;;1.90;1.63;;;14.80;40.20;;;;;;5072521;28;20407;-68
2022/06/25 04:36:24;;;;;;;3.03;1.47;;;14.90;39.10;;;;;;5072394;28;20475;-67
2022/06/25 04:38:50;;;;;;;9.40;2.27;;;15.00;38.40;;;;;;5072015;28;20827;-70
2022/06/25 04:41:16;;;;;;;2.93;1.43;;;15.10;39.00;;;;;;5072339;28;20184;-69
2022/06/25 04:43:42;;;;;;;1.90;1.27;;;15.20;38.70;;;;;;5072664;28;20411;-71
2022/06/25 04:46:08;;;;;;;1.57;0.87;;;15.20;38.10;;;;;;5072148;28;20938;-69
2022/06/25 04:48:33;;;;;;;2.00;1.63;;;15.40;37.30;;;;;;5071027;28;20430;-69
2022/06/25 04:50:59;;;;;;;1.83;1.63;;;15.50;37.90;;;;;;5072255;28;20177;-67
2022/06/25 04:53:24;;;;;;;1.97;1.47;;;15.60;37.80;;;;;;5072457;28;20188;-69
2022/06/25 04:55:50;;;;;;;2.20;1.67;;;16.60;40.50;;;;;;5070757;28;20217;-69
2022/06/25 04:58:15;;;;;;;2.07;1.73;;;17.90;30.90;;;;;;5070662;28;20181;-69
2022/06/25 05:00:41;;;;;;;3.20;3.00;;;19.30;27.30;;;;;;5070929;28;20670;-69
2022/06/25 05:03:08;;;;;;;4.40;4.20;;;20.60;23.30;;;;;;5071084;28;20217;-70
2022/06/25 05:05:33;;;;;;;6.40;6.10;;;22.00;19.30;;;;;;5071992;28;20190;-68
2022/06/25 05:07:59;;;;;;;8.60;8.20;;;23.20;17.70;;;;;;5071724;28;20439;-69
2022/06/25 05:10:26;;;;;;;8.30;7.90;;;24.30;16.40;;;;;;5071939;28;20284;-68
2022/06/25 05:15:36;;;;;;;9.90;9.50;;;26.50;12.60;;;;;;5071761;28;20585;-68
2022/06/25 05:18:01;;;;;;;11.13;10.20;;;27.50;10.40;;;;;;5071493;28;20491;-68
2022/06/25 05:20:27;;;;;;;11.50;11.10;;;28.40;8.70;;;;;;5071803;28;20190;-68
2022/06/25 05:22:52;;;;;;;11.80;11.40;;;29.20;6.70;;;;;;5071743;28;20178;-68
2022/06/25 05:25:18;;;;;;;12.20;11.77;;;29.90;5.90;;;;;;5070592;28;20201;-68
2022/06/25 05:27:44;;;;;;;12.60;12.10;;;30.60;4.60;;;;;;5071698;28;20178;-68
2022/06/25 05:30:10;;;;;;;12.20;11.80;;;30.90;3.70;;;;;;5071266;28;20455;-68
2022/06/25 05:32:36;;;;;;;12.57;12.03;;;31.20;3.90;;;;;;5071637;28;20205;-68
2022/06/25 05:35:02;;;;;;;12.70;12.20;;;31.80;2.90;;;;;;5062865;28;20839;-68
2022/06/25 05:37:27;;;;;;;12.60;12.07;;;32.10;2.20;;;;;;5066070;28;20217;-68
2022/06/25 05:39:53;;;;;;;12.40;11.90;;;32.40;1.00;;;;;;5070459;28;20838;-69
2022/06/25 05:42:20;;;;;;;13.00;12.50;;;32.40;1.50;;;;;;5050381;28;20273;-68
2022/06/25 05:44:46;;;;;;;13.63;12.77;;;32.50;1.00;;;;;;5051580;28;20629;-68
2022/06/25 05:47:12;;;;;;;12.63;12.13;;;32.90;1.30;;;;;;5051785;28;20413;-73
2022/06/25 05:49:38;;;;;;;13.20;12.70;;;33.40;1.00;;;;;;5050157;28;20977;-68
2022/06/25 05:52:04;;;;;;;12.97;12.47;;;33.60;1.00;;;;;;5052360;28;20258;-68
2022/06/25 05:54:29;;;;;;;12.80;12.30;;;34.00;1.00;;;;;;5071536;28;20700;-66
2022/06/25 05:56:55;;;;;;;13.43;12.90;;;33.80;1.00;;;;;;5071365;28;20240;-67
2022/06/25 05:59:20;;;;;;;13.27;12.77;;;34.00;1.00;;;;;;5071177;28;20179;-66
2022/06/25 06:01:46;;;;;;;13.07;12.57;;;34.80;1.00;;;;;;5075159;28;20193;-67
2022/06/25 06:04:11;;;;;;;13.17;12.67;;;35.40;1.00;;;;;;5074233;28;20189;-67
2022/06/25 06:06:37;;;;;;;13.20;12.70;;;35.80;1.00;;;;;;5075237;28;20206;-67
2022/06/25 06:09:03;;;;;;;14.37;13.77;;;35.80;1.00;;;;;;5073854;28;20323;-67
2022/06/25 06:11:28;;;;;;;13.13;12.63;;;36.30;1.00;;;;;;5074250;28;20623;-67
2022/06/25 06:13:54;;;;;;;14.03;13.53;;;36.80;1.00;;;;;;5075164;28;20170;-67
2022/06/25 06:16:19;;;;;;;14.17;13.57;;;37.10;1.00;;;;;;5075043;28;20197;-67
2022/06/25 06:18:45;;;;;;;13.73;13.13;;;37.30;1.00;;;;;;5074746;28;20250;-67
2022/06/25 06:21:10;;;;;;;13.80;13.30;;;37.60;1.00;;;;;;5074984;28;20178;-67
2022/06/25 06:23:36;;;;;;;13.93;13.37;;;37.80;1.00;;;;;;5074946;28;20257;-66
2022/06/25 06:26:02;;;;;;;14.07;13.47;;;38.00;1.00;;;;;;5074882;28;20217;-66
2022/06/25 06:28:27;;;;;;;14.37;13.50;;;38.10;1.00;;;;;;5074435;28;20174;-64
2022/06/25 06:30:53;;;;;;;13.60;13.10;;;38.60;1.00;;;;;;5054416;28;20223;-66
2022/06/25 06:33:18;;;;;;;14.23;13.73;;;38.80;1.00;;;;;;5054312;28;20175;-66
2022/06/25 06:35:44;;;;;;;14.00;13.50;;;39.10;1.00;;;;;;5054931;28;20210;-66
2022/06/25 06:38:09;;;;;;;13.70;13.20;;;38.90;1.00;;;;;;5054422;28;20186;-67
2022/06/25 06:40:35;;;;;;;13.80;13.30;;;39.10;1.00;;;;;;5054757;28;20214;-66
2022/06/25 06:43:00;;;;;;;13.77;13.27;;;39.00;1.00;;;;;;5054694;28;20174;-66
2022/06/25 06:45:26;;;;;;;13.80;13.30;;;39.10;1.00;;;;;;5054638;28;20200;-66
2022/06/25 06:47:52;;;;;;;13.60;13.10;;;38.70;1.00;;;;;;5055121;28;20642;-66
2022/06/25 06:50:18;;;;;;;13.80;13.30;;;38.70;1.00;;;;;;5054026;28;20470;-66
2022/06/25 06:52:44;;;;;;;13.70;13.20;;;38.60;1.00;;;;;;5054599;28;20175;-67
2022/06/25 06:55:09;;;;;;;14.23;13.37;;;38.10;1.00;;;;;;5054331;28;20752;-66
2022/06/25 06:57:35;;;;;;;39.47;21.40;;;37.10;1.00;;;;;;5054409;28;20555;-66
2022/06/25 07:00:06;;;;;;;14.90;13.90;;;36.40;1.00;;;;;;5054138;28;20214;-66
2022/06/25 07:02:32;;;;;;;13.70;13.20;;;35.60;1.00;;;;;;5053436;28;20183;-65
2022/06/25 07:04:57;;;;;;;14.70;13.90;;;33.30;1.00;;;;;;5054509;28;20419;-67
2022/06/25 07:07:23;;;;;;;17.90;16.40;;;31.60;1.00;;;;;;5054266;28;20413;-67
2022/06/25 07:09:49;;;;;;;16.00;14.57;;;30.50;1.00;;;;;;5053612;28;20206;-67
2022/06/25 07:12:15;;;;;;;15.63;14.00;;;29.90;1.00;;;;;;5052803;28;20428;-67
2022/06/25 07:14:40;;;;;;;15.03;14.23;;;30.40;1.00;;;;;;5053973;28;20202;-67
2022/06/25 07:17:06;;;;;;;12.60;12.20;;;31.00;1.00;;;;;;5053821;28;20239;-67
2022/06/25 07:19:31;;;;;;;13.07;12.57;;;30.80;1.00;;;;;;5053604;28;20182;-73
2022/06/25 07:21:57;;;;;;;13.33;12.83;;;30.60;1.00;;;;;;5064362;28;20260;-67
2022/06/25 07:24:23;;;;;;;13.43;12.93;;;30.90;1.00;;;;;;5073897;28;20178;-67
2022/06/25 07:26:49;;;;;;;13.70;13.10;;;31.40;1.00;;;;;;5074438;28;20281;-67
2022/06/25 07:29:15;;;;;;;13.10;12.60;;;32.20;1.00;;;;;;5064587;28;20599;-68
2022/06/25 07:31:41;;;;;;;13.40;12.90;;;32.40;1.00;;;;;;5053580;28;20197;-67
2022/06/25 07:34:06;;;;;;;14.17;13.20;;;32.70;1.00;;;;;;5053604;28;20175;-66
2022/06/25 07:36:32;;;;;;;13.90;13.30;;;33.20;1.00;;;;;;5053477;28;20203;-66
2022/06/25 07:38:58;;;;;;;13.40;12.70;;;34.10;1.00;;;;;;5053382;28;20185;-66
2022/06/25 07:41:23;;;;;;;13.10;12.50;;;34.80;1.00;;;;;;5051376;28;20307;-66
2022/06/25 07:43:49;;;;;;;13.00;12.50;;;35.50;1.00;;;;;;5052352;28;20828;-65
2022/06/25 07:46:15;;;;;;;12.90;12.40;;;36.10;1.00;;;;;;5051643;28;20868;-66
2022/06/25 07:48:41;;;;;;;12.97;12.57;;;36.70;1.00;;;;;;5051344;28;20550;-66
2022/06/25 07:53:51;;;;;;;12.73;12.23;;;33.40;1.00;;;;;;5051555;28;20224;-67
2022/06/25 07:56:16;;;;;;;13.50;13.00;;;33.50;1.00;;;;;;5051219;28;20449;-66
2022/06/25 07:58:42;;;;;;;13.70;13.20;;;33.20;1.00;;;;;;5052178;28;20213;-66
2022/06/25 08:01:08;;;;;;;13.47;12.90;;;33.20;1.00;;;;;;5053171;28;20175;-66
2022/06/25 08:03:33;;;;;;;13.70;13.20;;;32.60;1.00;;;;;;5053161;28;20177;-67
2022/06/25 08:05:59;;;;;;;13.40;12.80;;;32.90;1.00;;;;;;5053332;28;20210;-66
2022/06/25 08:08:25;;;;;;;12.90;12.40;;;33.90;1.00;;;;;;5052775;28;20175;-66
2022/06/25 08:10:51;;;;;;;13.10;12.60;;;33.30;1.00;;;;;;5052940;28;20951;-67
2022/06/25 08:13:17;;;;;;;14.43;13.73;;;32.30;1.00;;;;;;5053081;28;20420;-66
2022/06/25 08:15:43;;;;;;;14.47;13.70;;;31.10;1.00;;;;;;5052810;28;20673;-67
2022/06/25 08:18:08;;;;;;;13.20;12.67;;;31.50;1.00;;;;;;5052512;28;20170;-66
2022/06/25 08:20:34;;;;;;;13.33;12.83;;;31.80;1.00;;;;;;5053009;28;20170;-66
2022/06/25 08:22:59;;;;;;;13.77;13.17;;;31.70;1.00;;;;;;5052642;28;20210;-66
2022/06/25 08:25:25;;;;;;;13.70;13.10;;;31.20;1.00;;;;;;5052871;28;20201;-66
2022/06/25 08:27:53;;;;;;;13.67;13.07;;;30.80;1.00;;;;;;5052689;28;20253;-67
2022/06/25 08:30:20;;;;;;;13.83;13.13;;;30.50;1.00;;;;;;5067587;28;20189;-66
2022/06/25 08:32:46;;;;;;;13.67;13.17;;;30.70;1.00;;;;;;5072593;28;20412;-66
2022/06/25 08:35:12;;;;;;;13.20;12.70;;;30.90;1.00;;;;;;5072504;28;20519;-66
2022/06/25 08:37:46;;;;;;;12.63;12.13;;;29.60;1.00;;;;;;5072518;28;20420;-66
2022/06/25 08:40:12;;;;;;;13.30;12.80;;;29.70;1.00;;;;;;5072141;28;20415;-66
2022/06/25 08:42:38;;;;;;;12.77;12.37;;;28.70;1.00;;;;;;5072347;28;20774;-66
2022/06/25 08:45:04;;;;;;;12.50;12.00;;;28.40;1.70;;;;;;5071274;28;20459;-66
2022/06/25 08:47:30;;;;;;;13.40;12.83;;;29.30;1.00;;;;;;5072139;28;20899;-67
2022/06/25 08:49:55;;;;;;;12.70;12.20;;;30.00;1.00;;;;;;5071686;28;20486;-66
2022/06/25 08:52:21;;;;;;;12.23;11.73;;;29.70;1.00;;;;;;5065227;28;20232;-65
2022/06/25 08:54:48;;;;;;;13.50;12.90;;;28.50;2.70;;;;;;5066848;28;20189;-66
2022/06/25 08:57:14;;;;;;;13.30;12.80;;;28.20;2.60;;;;;;5057125;28;20428;-66
2022/06/25 08:59:40;;;;;;;12.80;12.30;;;28.50;1.60;;;;;;5050814;28;20421;-65
2022/06/25 09:02:05;;;;;;;12.43;11.83;;;27.00;2.70;;;;;;5051798;28;20408;-66
2022/06/25 09:04:34;;;;;;;12.70;12.20;;;25.70;4.70;;;;;;5052285;28;20223;-66
2022/06/25 09:07:14;;;;;;;12.33;11.20;;;25.40;5.90;;;;;;5051917;28;20225;-66
2022/06/25 09:09:44;;;;;;;11.77;11.23;;;25.50;6.20;;;;;;5051810;28;20447;-66
2022/06/25 09:12:14;;;;;;;12.00;11.20;;;25.70;6.40;;;;;;5063560;28;20420;-65
2022/06/25 09:14:40;;;;;;;13.37;12.87;;;24.70;8.10;;;;;;5071819;28;20427;-65
2022/06/25 09:17:09;;;;;;;11.33;10.93;;;24.90;7.50;;;;;;5071750;28;20929;-66
2022/06/25 09:19:42;;;;;;;11.60;11.00;;;25.20;7.60;;;;;;5071548;28;20839;-65
2022/06/25 09:22:09;;;;;;;11.03;10.63;;;24.90;8.00;;;;;;5071889;28;20816;-65
2022/06/25 09:24:49;;;;;;;11.07;10.50;;;23.70;9.10;;;;;;5068326;28;20471;-66
2022/06/25 09:27:20;;;;;;;11.20;10.60;;;23.40;10.50;;;;;;5051733;28;20451;-65
2022/06/25 09:29:50;;;;;;;11.13;10.63;;;23.60;10.50;;;;;;5052420;28;20827;-65
2022/06/25 09:32:17;;;;;;;11.43;10.93;;;23.80;9.30;;;;;;5051734;28;20455;-66
2022/06/25 09:34:43;;;;;;;11.17;10.67;;;24.10;9.20;;;;;;5051095;28;20432;-65
2022/06/25 09:37:25;;;;;;;10.23;9.83;;;24.30;9.30;;;;;;5051835;28;20931;-66
2022/06/25 09:39:53;;;;;;;11.30;10.60;;;24.40;9.30;;;;;;5068286;28;20787;-66
2022/06/25 09:42:30;;;;;;;11.37;10.70;;;23.80;10.20;;;;;;5071618;28;20435;-66
2022/06/25 09:45:07;;;;;;;11.43;10.80;;;24.00;8.50;;;;;;5071601;28;20408;-66
2022/06/25 09:47:42;;;;;;;10.87;10.40;;;23.90;10.00;;;;;;5070045;28;20391;-66
2022/06/25 09:50:13;;;;;;;11.17;10.77;;;24.30;9.50;;;;;;5050789;28;20464;-66
2022/06/25 09:52:56;;;;;;;11.03;10.63;;;24.70;8.80;;;;;;5052748;28;20433;-66
2022/06/25 09:55:24;;;;;;;11.20;10.80;;;25.20;7.70;;;;;;5088990;22;20443;-67
2022/06/25 09:57:52;;;;;;;11.30;10.80;;;25.50;7.30;;;;;;5072218;28;20507;-67
2022/06/25 10:00:19;;;;;;;11.80;11.40;;;25.70;6.80;;;;;;5073216;28;20787;-69
2022/06/25 10:02:50;;;;;;;12.33;11.83;;;25.80;5.20;;;;;;5072544;28;20487;-69
2022/06/25 10:05:18;;;;;;;11.80;11.40;;;26.00;5.80;;;;;;5072120;28;20478;-67
2022/06/25 10:08:00;;;;;;;12.50;11.90;;;26.20;5.90;;;;;;5054529;28;20441;-68
2022/06/25 10:10:30;;;;;;;12.00;11.50;;;26.30;5.20;;;;;;5052899;28;20959;-68
2022/06/25 10:12:56;;;;;;;11.77;11.27;;;26.40;5.70;;;;;;5052270;28;20490;-68
2022/06/25 10:15:23;;;;;;;12.73;12.23;;;26.50;5.30;;;;;;5052052;28;20404;-68
2022/06/25 10:17:51;;;;;;;12.03;11.63;;;26.60;4.50;;;;;;5060072;28;20186;-70
2022/06/25 10:20:18;;;;;;;12.23;11.73;;;26.70;5.20;;;;;;5072133;28;20779;-69
2022/06/25 10:22:45;;;;;;;11.90;11.40;;;26.70;3.00;;;;;;5071852;28;20918;-70
2022/06/25 10:25:14;;;;;;;12.00;11.50;;;26.80;4.20;;;;;;5071674;28;20420;-68
2022/06/25 10:27:44;;;;;;;12.10;11.60;;;27.00;4.60;;;;;;5071969;28;20890;-70
2022/06/25 10:30:12;;;;;;;12.33;11.83;;;27.00;4.30;;;;;;5071233;28;20464;-68
2022/06/25 10:32:46;;;;;;;12.53;11.90;;;27.10;3.20;;;;;;5053063;28;20425;-68
2022/06/25 10:35:30;;;;;;;12.00;11.40;;;27.10;3.80;;;;;;5050557;28;20481;-69
2022/06/25 10:38:02;;;;;;;12.03;11.53;;;27.20;2.80;;;;;;5052025;28;20417;-69
2022/06/25 10:40:32;;;;;;;12.27;11.77;;;27.30;3.60;;;;;;5053226;28;20413;-69
2022/06/25 10:43:01;;;;;;;12.90;12.40;;;27.40;3.50;;;;;;5058566;28;20757;-68
2022/06/25 10:45:33;;;;;;;11.90;11.50;;;27.40;3.10;;;;;;5053653;28;20452;-68
2022/06/25 10:48:00;;;;;;;12.23;11.73;;;27.60;3.30;;;;;;5054154;28;20413;-69
2022/06/25 10:50:30;;;;;;;11.87;11.47;;;27.60;3.00;;;;;;5055841;28;20551;-68
2022/06/25 10:53:02;;;;;;;12.47;11.70;;;27.50;3.00;;;;;;5055882;28;20775;-68
2022/06/25 10:55:34;;;;;;;11.80;11.37;;;27.40;2.90;;;;;;5055399;28;20451;-68
2022/06/25 10:58:17;;;;;;;12.33;11.63;;;27.20;3.50;;;;;;5065591;28;20423;-69
2022/06/25 11:00:57;;;;;;;11.80;11.40;;;27.20;2.80;;;;;;5075645;28;20804;-68
2022/06/25 11:03:28;;;;;;;12.37;11.77;;;26.80;3.20;;;;;;5075842;28;20412;-69
2022/06/25 11:05:55;;;;;;;12.00;11.60;;;26.80;4.00;;;;;;5075896;28;21014;-67
2022/06/25 11:08:24;;;;;;;11.60;11.20;;;26.80;3.90;;;;;;5073933;28;20427;-67
2022/06/25 11:10:49;;;;;;;11.23;10.83;;;26.80;4.20;;;;;;5069005;28;20851;-68
2022/06/25 11:13:16;;;;;;;11.40;11.00;;;26.50;4.50;;;;;;5055425;28;20416;-69
2022/06/25 11:15:44;;;;;;;12.30;11.80;;;26.50;4.40;;;;;;5055397;28;20186;-69
2022/06/25 11:18:14;;;;;;;12.40;11.90;;;26.20;3.50;;;;;;5054973;28;20437;-69
2022/06/25 11:20:42;;;;;;;11.50;11.10;;;25.90;3.60;;;;;;5055261;28;20831;-68
2022/06/25 11:23:12;;;;;;;12.10;11.63;;;25.90;4.20;;;;;;5055134;28;20416;-68
2022/06/25 11:28:48;;;;;;;11.47;11.07;;;26.10;4.60;;;;;;5075116;28;20406;-68
2022/06/25 11:31:34;;;;;;;12.50;12.00;;;26.00;4.30;;;;;;5074758;28;20824;-68
2022/06/25 11:34:02;;;;;;;12.23;11.63;;;25.80;3.70;;;;;;5074712;28;20412;-69
2022/06/25 11:36:27;;;;;;;11.97;11.50;;;26.00;3.90;;;;;;5074625;28;20435;-69
2022/06/25 11:38:55;;;;;;;11.70;11.30;;;26.30;3.00;;;;;;5059069;28;20417;-68
2022/06/25 11:41:26;;;;;;;12.10;11.60;;;26.50;3.90;;;;;;5054123;28;20217;-68
2022/06/25 11:43:52;;;;;;;12.00;11.60;;;26.80;2.60;;;;;;5054027;28;20516;-69
2022/06/25 11:46:19;;;;;;;11.23;10.73;;;26.70;2.60;;;;;;5054102;28;20425;-69
2022/06/25 11:48:50;;;;;;;12.30;11.90;;;26.70;2.60;;;;;;5053858;28;20811;-68
2022/06/25 11:51:25;;;;;;;12.00;11.50;;;26.80;2.80;;;;;;5054493;28;20421;-70
2022/06/25 11:53:54;;;;;;;11.53;11.03;;;26.80;3.20;;;;;;5054285;28;20444;-68
2022/06/25 11:56:20;;;;;;;11.60;11.17;;;26.80;2.60;;;;;;5054416;28;20445;-69
2022/06/25 11:58:47;;;;;;;11.10;10.70;;;26.80;2.20;;;;;;5053350;28;20445;-69
2022/06/25 12:01:13;;;;;;;11.20;10.80;;;26.70;2.60;;;;;;5054346;28;20833;-69
2022/06/25 12:03:39;;;;;;;12.20;11.70;;;26.80;2.90;;;;;;5053685;28;20440;-75
2022/06/25 12:06:05;;;;;;;12.97;12.17;;;27.00;3.60;;;;;;5068302;28;20472;-69
2022/06/25 12:08:31;;;;;;;11.60;11.10;;;27.30;3.30;;;;;;5073178;28;20944;-69
2022/06/25 12:11:01;;;;;;;12.10;11.70;;;27.00;1.00;;;;;;5073730;28;20819;-69
2022/06/25 12:13:29;;;;;;;11.70;11.30;;;26.40;1.00;;;;;;5062942;28;20421;-69
2022/06/25 12:16:00;;;;;;;12.10;11.60;;;26.10;2.20;;;;;;5071023;28;20530;-68
2022/06/25 12:18:39;;;;;;;11.80;11.40;;;26.70;2.60;;;;;;5067238;28;20410;-68
2022/06/25 12:21:06;;;;;;;11.27;10.87;;;27.10;1.50;;;;;;5053210;28;20470;-70
2022/06/25 12:23:50;;;;;;;11.83;11.33;;;27.10;2.30;;;;;;5072918;28;20980;-68
2022/06/25 12:26:31;;;;;;;12.47;11.97;;;27.40;2.30;;;;;;5073151;28;20434;-69
2022/06/25 12:29:11;;;;;;;12.67;12.17;;;27.40;1.50;;;;;;5070919;28;20922;-69
2022/06/25 12:31:37;;;;;;;12.53;12.00;;;27.50;1.00;;;;;;5058591;28;20420;-70
2022/06/25 12:34:04;;;;;;;11.93;11.53;;;27.50;1.50;;;;;;5062521;28;20416;-69
2022/06/25 12:36:35;;;;;;;12.10;11.60;;;27.60;1.00;;;;;;5060444;28;20448;-69
2022/06/25 12:39:01;;;;;;;12.30;11.80;;;27.60;1.50;;;;;;5053037;28;20662;-68
2022/06/25 12:41:45;;;;;;;12.03;11.27;;;27.60;1.00;;;;;;5053296;28;20816;-69
2022/06/25 12:44:14;;;;;;;12.43;11.93;;;27.10;1.00;;;;;;5053356;28;20193;-68
2022/06/25 12:46:39;;;;;;;11.60;11.20;;;26.60;1.00;;;;;;5055224;28;20939;-69
2022/06/25 12:49:05;;;;;;;12.30;11.80;;;26.50;1.70;;;;;;5072267;28;20487;-68
2022/06/25 12:51:31;;;;;;;12.27;11.77;;;26.40;1.00;;;;;;5073132;28;20547;-68
2022/06/25 12:53:56;;;;;;;11.90;11.40;;;26.80;1.10;;;;;;5071519;28;20535;-70
2022/06/25 12:56:22;;;;;;;11.50;11.00;;;26.90;1.90;;;;;;5072884;28;20220;-70
2022/06/25 12:58:48;;;;;;;12.00;11.40;;;27.10;1.00;;;;;;5072933;28;20229;-68
2022/06/25 13:01:25;;;;;;;11.63;11.23;;;27.30;1.10;;;;;;5062141;28;20175;-70
2022/06/25 13:03:51;;;;;;;12.10;11.70;;;27.50;1.00;;;;;;5052665;28;20201;-68
2022/06/25 13:06:17;;;;;;;11.90;11.50;;;27.60;1.00;;;;;;5052770;28;20433;-69
2022/06/25 13:08:42;;;;;;;11.87;11.47;;;27.60;1.00;;;;;;5052443;28;20420;-69